sensor_id;sensor_type;location;lat;lon;timestamp;temperature;humidity
52203;DHT22;38173;52.850;6.970;2022-12-07T00:00:55;2.70;99.90
52203;DHT22;38173;52.850;6.970;2022-12-07T00:03:21;2.70;99.90
52203;DHT22;38173;52.850;6.970;2022-12-07T00:05:47;2.60;99.90
52203;DHT22;38173;52.850;6.970;2022-12-07T00:08:13;2.70;99.90
52203;DHT22;38173;52.850;6.970;2022-12-07T00:10:40;2.60;99.90
52203;DHT22;38173;52.850;6.970;2022-12-07T00:13:06;2.60;99.90
52203;DHT22;38173;52.850;6.970;2022-12-07T00:15:33;2.60;99.90
52203;DHT22;38173;52.850;6.970;2022-12-07T00:17:58;2.60;99.90
52203;DHT22;38173;52.850;6.970;2022-12-07T00:20:24;2.60;99.90
52203;DHT22;38173;52.850;6.970;2022-12-07T00:22:50;2.50;99.90
52203;DHT22;38173;52.850;6.970;2022-12-07T00:25:16;2.50;99.90
52203;DHT22;38173;52.850;6.970;2022-12-07T00:27:42;2.50;99.90
52203;DHT22;38173;52.850;6.970;2022-12-07T00:30:08;2.40;99.90
52203;DHT22;38173;52.850;6.970;2022-12-07T00:32:34;2.50;99.90
52203;DHT22;38173;52.850;6.970;2022-12-07T00:35:23;2.50;99.90
52203;DHT22;38173;52.850;6.970;2022-12-07T00:37:49;2.50;99.90
52203;DHT22;38173;52.850;6.970;2022-12-07T00:40:15;2.60;99.90
52203;DHT22;38173;52.850;6.970;2022-12-07T00:42:44;2.60;99.90
52203;DHT22;38173;52.850;6.970;2022-12-07T00:45:20;2.60;99.90
52203;DHT22;38173;52.850;6.970;2022-12-07T00:47:45;2.60;99.90
52203;DHT22;38173;52.850;6.970;2022-12-07T00:50:11;2.60;99.90
52203;DHT22;38173;52.850;6.970;2022-12-07T00:52:37;2.70;99.90
52203;DHT22;38173;52.850;6.970;2022-12-07T00:55:03;2.70;99.90
52203;DHT22;38173;52.850;6.970;2022-12-07T00:57:30;2.70;99.90
52203;DHT22;38173;52.850;6.970;2022-12-07T00:59:55;2.70;99.90
52203;DHT22;38173;52.850;6.970;2022-12-07T01:02:23;2.60;99.90
52203;DHT22;38173;52.850;6.970;2022-12-07T01:04:49;2.60;99.90
52203;DHT22;38173;52.850;6.970;2022-12-07T01:07:14;2.60;99.90
52203;DHT22;38173;52.850;6.970;2022-12-07T01:09:40;2.50;99.90
52203;DHT22;38173;52.850;6.970;2022-12-07T01:12:06;2.50;99.90
52203;DHT22;38173;52.850;6.970;2022-12-07T01:14:32;2.40;99.90
52203;DHT22;38173;52.850;6.970;2022-12-07T01:16:59;2.40;99.90
52203;DHT22;38173;52.850;6.970;2022-12-07T01:19:24;2.40;99.90
52203;DHT22;38173;52.850;6.970;2022-12-07T01:21:50;2.30;99.90
52203;DHT22;38173;52.850;6.970;2022-12-07T01:24:16;2.30;99.90
52203;DHT22;38173;52.850;6.970;2022-12-07T01:26:42;2.30;99.90
52203;DHT22;38173;52.850;6.970;2022-12-07T01:29:07;2.30;99.90
52203;DHT22;38173;52.850;6.970;2022-12-07T01:31:33;2.30;99.90
52203;DHT22;38173;52.850;6.970;2022-12-07T01:33:59;2.30;99.90
52203;DHT22;38173;52.850;6.970;2022-12-07T01:36:27;2.20;99.90
52203;DHT22;38173;52.850;6.970;2022-12-07T01:38:54;2.20;99.90
52203;DHT22;38173;52.850;6.970;2022-12-07T01:41:22;2.20;99.90
52203;DHT22;38173;52.850;6.970;2022-12-07T01:46:32;2.10;99.90
52203;DHT22;38173;52.850;6.970;2022-12-07T01:48:58;2.10;99.90
52203;DHT22;38173;52.850;6.970;2022-12-07T01:51:24;2.10;99.90
52203;DHT22;38173;52.850;6.970;2022-12-07T01:53:51;2.10;99.90
52203;DHT22;38173;52.850;6.970;2022-12-07T01:56:17;2.10;99.90
52203;DHT22;38173;52.850;6.970;2022-12-07T01:58:44;2.10;99.90
52203;DHT22;38173;52.850;6.970;2022-12-07T02:01:16;2.00;99.90
52203;DHT22;38173;52.850;6.970;2022-12-07T02:03:43;2.10;99.90
52203;DHT22;38173;52.850;6.970;2022-12-07T02:06:13;2.00;99.90
52203;DHT22;38173;52.850;6.970;2022-12-07T02:08:41;2.10;99.90
52203;DHT22;38173;52.850;6.970;2022-12-07T02:11:07;2.00;99.90
52203;DHT22;38173;52.850;6.970;2022-12-07T02:13:34;2.00;99.90
52203;DHT22;38173;52.850;6.970;2022-12-07T02:18:51;2.00;99.90
52203;DHT22;38173;52.850;6.970;2022-12-07T02:21:36;2.00;99.90
52203;DHT22;38173;52.850;6.970;2022-12-07T02:27:11;1.90;99.90
52203;DHT22;38173;52.850;6.970;2022-12-07T02:40:34;2.20;99.90
52203;DHT22;38173;52.850;6.970;2022-12-07T02:43:08;2.20;99.90
52203;DHT22;38173;52.850;6.970;2022-12-07T02:45:35;2.30;99.90
52203;DHT22;38173;52.850;6.970;2022-12-07T02:48:02;2.20;99.90
52203;DHT22;38173;52.850;6.970;2022-12-07T02:50:29;2.20;99.90
52203;DHT22;38173;52.850;6.970;2022-12-07T02:52:55;2.20;99.90
52203;DHT22;38173;52.850;6.970;2022-12-07T02:55:23;2.20;99.90
52203;DHT22;38173;52.850;6.970;2022-12-07T03:00:34;2.10;99.90
52203;DHT22;38173;52.850;6.970;2022-12-07T03:03:09;2.10;99.90
52203;DHT22;38173;52.850;6.970;2022-12-07T03:13:29;2.00;99.90
52203;DHT22;38173;52.850;6.970;2022-12-07T03:18:41;2.10;99.90
52203;DHT22;38173;52.850;6.970;2022-12-07T03:21:11;2.10;99.90
52203;DHT22;38173;52.850;6.970;2022-12-07T03:23:41;2.10;99.90
52203;DHT22;38173;52.850;6.970;2022-12-07T03:26:12;2.10;99.90
52203;DHT22;38173;52.850;6.970;2022-12-07T03:28:43;2.10;99.90
52203;DHT22;38173;52.850;6.970;2022-12-07T03:31:23;2.20;99.90
52203;DHT22;38173;52.850;6.970;2022-12-07T03:36:30;2.20;99.90
52203;DHT22;38173;52.850;6.970;2022-12-07T03:39:03;2.30;99.90
52203;DHT22;38173;52.850;6.970;2022-12-07T03:41:34;2.30;99.90
52203;DHT22;38173;52.850;6.970;2022-12-07T03:44:00;2.30;99.90
52203;DHT22;38173;52.850;6.970;2022-12-07T03:46:41;2.30;99.90
52203;DHT22;38173;52.850;6.970;2022-12-07T03:54:07;2.50;99.90
52203;DHT22;38173;52.850;6.970;2022-12-07T03:56:39;2.50;99.90
52203;DHT22;38173;52.850;6.970;2022-12-07T03:59:09;2.50;99.90
52203;DHT22;38173;52.850;6.970;2022-12-07T04:01:35;2.50;99.90
52203;DHT22;38173;52.850;6.970;2022-12-07T04:04:01;2.50;99.90
52203;DHT22;38173;52.850;6.970;2022-12-07T04:06:39;2.60;99.90
52203;DHT22;38173;52.850;6.970;2022-12-07T04:09:05;2.60;99.90
52203;DHT22;38173;52.850;6.970;2022-12-07T04:11:31;2.60;99.90
52203;DHT22;38173;52.850;6.970;2022-12-07T04:13:57;2.60;99.90
52203;DHT22;38173;52.850;6.970;2022-12-07T04:16:48;2.50;99.90
52203;DHT22;38173;52.850;6.970;2022-12-07T04:19:18;2.60;99.90
52203;DHT22;38173;52.850;6.970;2022-12-07T04:21:44;2.60;99.90
52203;DHT22;38173;52.850;6.970;2022-12-07T04:24:12;2.60;99.90
52203;DHT22;38173;52.850;6.970;2022-12-07T04:26:38;2.60;99.90
52203;DHT22;38173;52.850;6.970;2022-12-07T04:29:07;2.60;99.90
52203;DHT22;38173;52.850;6.970;2022-12-07T04:31:34;2.60;99.90
52203;DHT22;38173;52.850;6.970;2022-12-07T04:34:00;2.60;99.90
52203;DHT22;38173;52.850;6.970;2022-12-07T04:36:32;2.70;99.90
52203;DHT22;38173;52.850;6.970;2022-12-07T04:39:07;2.60;99.90
52203;DHT22;38173;52.850;6.970;2022-12-07T04:41:34;2.60;99.90
52203;DHT22;38173;52.850;6.970;2022-12-07T04:44:08;2.50;99.90
52203;DHT22;38173;52.850;6.970;2022-12-07T04:46:34;2.50;99.90
52203;DHT22;38173;52.850;6.970;2022-12-07T04:49:00;2.40;99.90
52203;DHT22;38173;52.850;6.970;2022-12-07T04:51:35;2.30;99.90
52203;DHT22;38173;52.850;6.970;2022-12-07T04:54:04;2.30;99.90
52203;DHT22;38173;52.850;6.970;2022-12-07T04:56:32;2.20;99.90
52203;DHT22;38173;52.850;6.970;2022-12-07T04:59:01;2.20;99.90
52203;DHT22;38173;52.850;6.970;2022-12-07T05:01:28;2.10;99.90
52203;DHT22;38173;52.850;6.970;2022-12-07T05:03:55;2.10;99.90
52203;DHT22;38173;52.850;6.970;2022-12-07T05:06:26;2.00;99.90
52203;DHT22;38173;52.850;6.970;2022-12-07T05:08:52;2.00;99.90
52203;DHT22;38173;52.850;6.970;2022-12-07T05:11:18;2.00;99.90
52203;DHT22;38173;52.850;6.970;2022-12-07T05:14:03;1.90;99.90
52203;DHT22;38173;52.850;6.970;2022-12-07T05:16:30;1.90;99.90
52203;DHT22;38173;52.850;6.970;2022-12-07T05:18:56;1.90;99.90
52203;DHT22;38173;52.850;6.970;2022-12-07T05:21:23;1.90;99.90
52203;DHT22;38173;52.850;6.970;2022-12-07T05:23:58;1.80;99.90
52203;DHT22;38173;52.850;6.970;2022-12-07T05:26:23;1.80;99.90
52203;DHT22;38173;52.850;6.970;2022-12-07T05:28:50;1.80;99.90
52203;DHT22;38173;52.850;6.970;2022-12-07T05:31:16;1.80;99.90
52203;DHT22;38173;52.850;6.970;2022-12-07T05:33:42;1.70;99.90
52203;DHT22;38173;52.850;6.970;2022-12-07T05:36:08;1.80;99.90
52203;DHT22;38173;52.850;6.970;2022-12-07T05:38:34;1.80;99.90
52203;DHT22;38173;52.850;6.970;2022-12-07T05:41:03;1.90;99.90
52203;DHT22;38173;52.850;6.970;2022-12-07T05:43:33;1.90;99.90
52203;DHT22;38173;52.850;6.970;2022-12-07T05:45:59;1.90;99.90
52203;DHT22;38173;52.850;6.970;2022-12-07T05:48:25;1.90;99.90
52203;DHT22;38173;52.850;6.970;2022-12-07T05:50:51;1.90;99.90
52203;DHT22;38173;52.850;6.970;2022-12-07T05:53:17;1.90;99.90
52203;DHT22;38173;52.850;6.970;2022-12-07T05:55:43;1.80;99.90
52203;DHT22;38173;52.850;6.970;2022-12-07T05:58:10;1.70;99.90
52203;DHT22;38173;52.850;6.970;2022-12-07T06:00:55;1.70;99.90
52203;DHT22;38173;52.850;6.970;2022-12-07T06:03:21;1.70;99.90
52203;DHT22;38173;52.850;6.970;2022-12-07T06:05:47;1.60;99.90
52203;DHT22;38173;52.850;6.970;2022-12-07T06:08:16;1.60;99.90
52203;DHT22;38173;52.850;6.970;2022-12-07T06:10:43;1.60;99.90
52203;DHT22;38173;52.850;6.970;2022-12-07T06:13:11;1.50;99.90
52203;DHT22;38173;52.850;6.970;2022-12-07T06:15:37;1.50;99.90
52203;DHT22;38173;52.850;6.970;2022-12-07T06:18:03;1.50;99.90
52203;DHT22;38173;52.850;6.970;2022-12-07T06:20:29;1.50;99.90
52203;DHT22;38173;52.850;6.970;2022-12-07T06:22:55;1.50;99.90
52203;DHT22;38173;52.850;6.970;2022-12-07T06:25:23;1.50;99.90
52203;DHT22;38173;52.850;6.970;2022-12-07T06:27:49;1.50;99.90
52203;DHT22;38173;52.850;6.970;2022-12-07T06:30:15;1.50;99.90
52203;DHT22;38173;52.850;6.970;2022-12-07T06:32:41;1.50;99.90
52203;DHT22;38173;52.850;6.970;2022-12-07T06:35:07;1.50;99.90
52203;DHT22;38173;52.850;6.970;2022-12-07T06:37:33;1.40;99.90
52203;DHT22;38173;52.850;6.970;2022-12-07T06:40:01;1.50;99.90
52203;DHT22;38173;52.850;6.970;2022-12-07T06:42:29;1.50;99.90
52203;DHT22;38173;52.850;6.970;2022-12-07T06:44:57;1.40;99.90
52203;DHT22;38173;52.850;6.970;2022-12-07T06:47:23;1.40;99.90
52203;DHT22;38173;52.850;6.970;2022-12-07T06:49:50;1.40;99.90
52203;DHT22;38173;52.850;6.970;2022-12-07T06:52:15;1.40;99.90
52203;DHT22;38173;52.850;6.970;2022-12-07T06:54:41;1.40;99.90
52203;DHT22;38173;52.850;6.970;2022-12-07T06:57:07;1.40;99.90
52203;DHT22;38173;52.850;6.970;2022-12-07T06:59:32;1.50;99.90
52203;DHT22;38173;52.850;6.970;2022-12-07T07:01:58;1.50;99.90
52203;DHT22;38173;52.850;6.970;2022-12-07T07:04:23;1.50;99.90
52203;DHT22;38173;52.850;6.970;2022-12-07T07:06:50;1.60;99.90
52203;DHT22;38173;52.850;6.970;2022-12-07T07:09:15;1.70;99.90
52203;DHT22;38173;52.850;6.970;2022-12-07T07:11:41;1.70;99.90
52203;DHT22;38173;52.850;6.970;2022-12-07T07:14:07;1.70;99.90
52203;DHT22;38173;52.850;6.970;2022-12-07T07:16:33;1.80;99.90
52203;DHT22;38173;52.850;6.970;2022-12-07T07:18:58;1.80;99.90
52203;DHT22;38173;52.850;6.970;2022-12-07T07:21:24;1.80;99.90
52203;DHT22;38173;52.850;6.970;2022-12-07T07:23:52;1.80;99.90
52203;DHT22;38173;52.850;6.970;2022-12-07T07:26:17;1.80;99.90
52203;DHT22;38173;52.850;6.970;2022-12-07T07:28:43;1.80;99.90
52203;DHT22;38173;52.850;6.970;2022-12-07T07:31:09;1.80;99.90
52203;DHT22;38173;52.850;6.970;2022-12-07T07:33:34;1.70;99.90
52203;DHT22;38173;52.850;6.970;2022-12-07T07:36:00;1.80;99.90
52203;DHT22;38173;52.850;6.970;2022-12-07T07:38:25;1.70;99.90
52203;DHT22;38173;52.850;6.970;2022-12-07T07:40:51;1.70;99.90
52203;DHT22;38173;52.850;6.970;2022-12-07T07:43:17;1.70;99.90
52203;DHT22;38173;52.850;6.970;2022-12-07T07:45:52;1.70;99.90
52203;DHT22;38173;52.850;6.970;2022-12-07T07:48:17;1.80;99.90
52203;DHT22;38173;52.850;6.970;2022-12-07T07:50:43;1.70;99.90
52203;DHT22;38173;52.850;6.970;2022-12-07T07:53:09;1.70;99.90
52203;DHT22;38173;52.850;6.970;2022-12-07T07:55:34;1.60;99.90
52203;DHT22;38173;52.850;6.970;2022-12-07T07:58:00;1.60;99.90
52203;DHT22;38173;52.850;6.970;2022-12-07T08:00:25;1.60;99.90
52203;DHT22;38173;52.850;6.970;2022-12-07T08:02:54;1.70;99.90
52203;DHT22;38173;52.850;6.970;2022-12-07T08:05:20;1.70;99.90
52203;DHT22;38173;52.850;6.970;2022-12-07T08:07:46;1.70;99.90
52203;DHT22;38173;52.850;6.970;2022-12-07T08:10:12;1.90;99.90
52203;DHT22;38173;52.850;6.970;2022-12-07T08:12:39;1.90;99.90
52203;DHT22;38173;52.850;6.970;2022-12-07T08:15:26;2.00;99.90
52203;DHT22;38173;52.850;6.970;2022-12-07T08:17:52;2.00;99.90
52203;DHT22;38173;52.850;6.970;2022-12-07T08:20:20;2.20;99.90
52203;DHT22;38173;52.850;6.970;2022-12-07T08:23:04;2.20;99.90
52203;DHT22;38173;52.850;6.970;2022-12-07T08:25:30;2.20;99.90
52203;DHT22;38173;52.850;6.970;2022-12-07T08:27:55;2.30;99.90
52203;DHT22;38173;52.850;6.970;2022-12-07T08:30:22;2.30;99.90
52203;DHT22;38173;52.850;6.970;2022-12-07T08:32:48;2.20;99.90
52203;DHT22;38173;52.850;6.970;2022-12-07T08:35:14;2.20;99.90
52203;DHT22;38173;52.850;6.970;2022-12-07T08:37:40;2.10;99.90
52203;DHT22;38173;52.850;6.970;2022-12-07T08:40:06;2.10;99.90
52203;DHT22;38173;52.850;6.970;2022-12-07T08:42:32;2.10;99.90
52203;DHT22;38173;52.850;6.970;2022-12-07T08:45:06;2.10;99.90
52203;DHT22;38173;52.850;6.970;2022-12-07T08:47:39;2.00;99.90
52203;DHT22;38173;52.850;6.970;2022-12-07T08:50:06;2.00;99.90
52203;DHT22;38173;52.850;6.970;2022-12-07T08:52:32;2.10;99.90
52203;DHT22;38173;52.850;6.970;2022-12-07T08:55:20;2.10;99.90
52203;DHT22;38173;52.850;6.970;2022-12-07T08:57:45;2.10;99.90
52203;DHT22;38173;52.850;6.970;2022-12-07T09:00:11;2.20;99.90
52203;DHT22;38173;52.850;6.970;2022-12-07T09:02:37;2.20;99.90
52203;DHT22;38173;52.850;6.970;2022-12-07T09:05:03;2.30;99.90
52203;DHT22;38173;52.850;6.970;2022-12-07T09:07:28;2.30;99.90
52203;DHT22;38173;52.850;6.970;2022-12-07T09:10:03;2.40;99.90
52203;DHT22;38173;52.850;6.970;2022-12-07T09:12:28;2.50;99.90
52203;DHT22;38173;52.850;6.970;2022-12-07T09:14:57;2.60;99.90
52203;DHT22;38173;52.850;6.970;2022-12-07T09:17:23;2.70;99.90
52203;DHT22;38173;52.850;6.970;2022-12-07T09:19:49;2.80;99.90
52203;DHT22;38173;52.850;6.970;2022-12-07T09:22:15;2.90;99.90
52203;DHT22;38173;52.850;6.970;2022-12-07T09:24:43;2.90;99.90
52203;DHT22;38173;52.850;6.970;2022-12-07T09:27:11;3.00;99.90
52203;DHT22;38173;52.850;6.970;2022-12-07T09:29:37;3.00;99.90
52203;DHT22;38173;52.850;6.970;2022-12-07T09:32:02;2.90;99.90
52203;DHT22;38173;52.850;6.970;2022-12-07T09:34:30;2.90;99.90
52203;DHT22;38173;52.850;6.970;2022-12-07T09:36:56;2.90;99.90
52203;DHT22;38173;52.850;6.970;2022-12-07T09:39:22;2.90;99.90
52203;DHT22;38173;52.850;6.970;2022-12-07T09:41:47;3.00;99.90
52203;DHT22;38173;52.850;6.970;2022-12-07T09:44:14;3.20;99.90
52203;DHT22;38173;52.850;6.970;2022-12-07T09:46:41;3.40;99.90
52203;DHT22;38173;52.850;6.970;2022-12-07T09:49:11;3.50;99.90
52203;DHT22;38173;52.850;6.970;2022-12-07T09:51:38;3.40;99.90
52203;DHT22;38173;52.850;6.970;2022-12-07T09:54:03;3.40;99.90
52203;DHT22;38173;52.850;6.970;2022-12-07T09:56:29;3.30;99.90
52203;DHT22;38173;52.850;6.970;2022-12-07T09:59:00;3.30;99.90
52203;DHT22;38173;52.850;6.970;2022-12-07T10:01:33;3.30;99.90
52203;DHT22;38173;52.850;6.970;2022-12-07T10:04:10;3.30;99.90
52203;DHT22;38173;52.850;6.970;2022-12-07T10:06:36;3.30;99.90
52203;DHT22;38173;52.850;6.970;2022-12-07T10:09:07;3.40;99.90
52203;DHT22;38173;52.850;6.970;2022-12-07T10:11:33;3.40;99.90
52203;DHT22;38173;52.850;6.970;2022-12-07T10:14:10;3.40;99.90
52203;DHT22;38173;52.850;6.970;2022-12-07T10:16:40;3.40;99.90
52203;DHT22;38173;52.850;6.970;2022-12-07T10:19:51;3.50;99.90
52203;DHT22;38173;52.850;6.970;2022-12-07T10:22:12;3.50;99.90
52203;DHT22;38173;52.850;6.970;2022-12-07T10:24:40;3.60;99.90
52203;DHT22;38173;52.850;6.970;2022-12-07T10:27:56;3.70;99.90
52203;DHT22;38173;52.850;6.970;2022-12-07T10:29:53;3.70;99.90
52203;DHT22;38173;52.850;6.970;2022-12-07T10:34:45;3.80;99.90
52203;DHT22;38173;52.850;6.970;2022-12-07T10:42:19;4.00;99.90
52203;DHT22;38173;52.850;6.970;2022-12-07T10:44:45;4.10;99.90
52203;DHT22;38173;52.850;6.970;2022-12-07T10:52:27;4.10;99.90
52203;DHT22;38173;52.850;6.970;2022-12-07T10:55:06;4.10;99.90
52203;DHT22;38173;52.850;6.970;2022-12-07T10:57:37;4.20;99.90
52203;DHT22;38173;52.850;6.970;2022-12-07T11:00:09;4.20;99.90
52203;DHT22;38173;52.850;6.970;2022-12-07T11:07:59;4.20;99.90
52203;DHT22;38173;52.850;6.970;2022-12-07T11:10:36;4.20;99.90
52203;DHT22;38173;52.850;6.970;2022-12-07T11:13:12;4.20;99.90
52203;DHT22;38173;52.850;6.970;2022-12-07T11:21:07;4.20;99.90
52203;DHT22;38173;52.850;6.970;2022-12-07T11:26:17;4.20;99.90
52203;DHT22;38173;52.850;6.970;2022-12-07T11:33:51;4.20;99.90
52203;DHT22;38173;52.850;6.970;2022-12-07T11:38:58;4.20;99.90
52203;DHT22;38173;52.850;6.970;2022-12-07T11:41:32;4.20;99.90
52203;DHT22;38173;52.850;6.970;2022-12-07T11:47:02;4.30;99.90
52203;DHT22;38173;52.850;6.970;2022-12-07T11:51:57;4.30;99.90
52203;DHT22;38173;52.850;6.970;2022-12-07T11:54:30;4.30;99.90
52203;DHT22;38173;52.850;6.970;2022-12-07T11:56:59;4.30;99.90
52203;DHT22;38173;52.850;6.970;2022-12-07T11:59:33;4.30;99.90
52203;DHT22;38173;52.850;6.970;2022-12-07T12:07:00;4.30;99.90
52203;DHT22;38173;52.850;6.970;2022-12-07T12:09:29;4.30;99.90
52203;DHT22;38173;52.850;6.970;2022-12-07T12:22:57;4.00;99.90
52203;DHT22;38173;52.850;6.970;2022-12-07T12:25:37;3.90;99.90
52203;DHT22;38173;52.850;6.970;2022-12-07T12:28:04;3.90;99.90
52203;DHT22;38173;52.850;6.970;2022-12-07T12:30:38;4.00;99.90
52203;DHT22;38173;52.850;6.970;2022-12-07T12:33:26;4.00;99.90
52203;DHT22;38173;52.850;6.970;2022-12-07T12:46:53;4.20;99.90
52203;DHT22;38173;52.850;6.970;2022-12-07T12:51:48;4.20;99.90
52203;DHT22;38173;52.850;6.970;2022-12-07T12:54:19;4.30;99.90
52203;DHT22;38173;52.850;6.970;2022-12-07T12:59:24;4.30;99.90
52203;DHT22;38173;52.850;6.970;2022-12-07T13:01:54;4.30;99.90
52203;DHT22;38173;52.850;6.970;2022-12-07T13:10:00;4.20;99.90
52203;DHT22;38173;52.850;6.970;2022-12-07T13:12:26;4.20;99.90
52203;DHT22;38173;52.850;6.970;2022-12-07T13:14:53;4.20;99.90
52203;DHT22;38173;52.850;6.970;2022-12-07T13:24:56;4.50;99.90
52203;DHT22;38173;52.850;6.970;2022-12-07T13:27:22;4.50;99.90
52203;DHT22;38173;52.850;6.970;2022-12-07T13:29:48;4.60;99.90
52203;DHT22;38173;52.850;6.970;2022-12-07T13:32:23;4.60;99.90
52203;DHT22;38173;52.850;6.970;2022-12-07T13:34:49;4.60;99.90
52203;DHT22;38173;52.850;6.970;2022-12-07T13:37:24;4.60;99.90
52203;DHT22;38173;52.850;6.970;2022-12-07T13:39:51;4.60;99.90
52203;DHT22;38173;52.850;6.970;2022-12-07T13:42:31;4.60;99.90
52203;DHT22;38173;52.850;6.970;2022-12-07T13:44:58;4.60;99.90
52203;DHT22;38173;52.850;6.970;2022-12-07T13:49:55;4.50;99.90
52203;DHT22;38173;52.850;6.970;2022-12-07T13:52:25;4.50;99.90
52203;DHT22;38173;52.850;6.970;2022-12-07T13:55:05;4.50;99.90
52203;DHT22;38173;52.850;6.970;2022-12-07T13:57:34;4.50;99.90
52203;DHT22;38173;52.850;6.970;2022-12-07T14:00:04;4.50;99.90
52203;DHT22;38173;52.850;6.970;2022-12-07T14:02:31;4.50;99.90
52203;DHT22;38173;52.850;6.970;2022-12-07T14:05:23;4.40;99.90
52203;DHT22;38173;52.850;6.970;2022-12-07T14:10:28;4.30;99.90
52203;DHT22;38173;52.850;6.970;2022-12-07T14:12:54;4.30;99.90
52203;DHT22;38173;52.850;6.970;2022-12-07T14:15:21;4.20;99.90
52203;DHT22;38173;52.850;6.970;2022-12-07T14:17:50;4.20;99.90
52203;DHT22;38173;52.850;6.970;2022-12-07T14:23:02;4.10;99.90
52203;DHT22;38173;52.850;6.970;2022-12-07T14:26:04;4.10;99.90
52203;DHT22;38173;52.850;6.970;2022-12-07T14:30:55;4.00;99.90
52203;DHT22;38173;52.850;6.970;2022-12-07T14:33:21;4.00;99.90
52203;DHT22;38173;52.850;6.970;2022-12-07T14:35:47;3.90;99.90
52203;DHT22;38173;52.850;6.970;2022-12-07T14:38:14;3.90;99.90
52203;DHT22;38173;52.850;6.970;2022-12-07T14:40:39;3.90;99.90
52203;DHT22;38173;52.850;6.970;2022-12-07T14:43:06;3.90;99.90
52203;DHT22;38173;52.850;6.970;2022-12-07T14:45:34;3.80;99.90
52203;DHT22;38173;52.850;6.970;2022-12-07T14:48:00;3.80;99.90
52203;DHT22;38173;52.850;6.970;2022-12-07T14:50:25;3.80;99.90
52203;DHT22;38173;52.850;6.970;2022-12-07T14:52:55;3.80;99.90
52203;DHT22;38173;52.850;6.970;2022-12-07T14:55:28;3.80;99.90
52203;DHT22;38173;52.850;6.970;2022-12-07T14:57:54;3.80;99.90
52203;DHT22;38173;52.850;6.970;2022-12-07T15:00:20;3.70;99.90
52203;DHT22;38173;52.850;6.970;2022-12-07T15:02:47;3.70;99.90
52203;DHT22;38173;52.850;6.970;2022-12-07T15:05:12;3.70;99.90
52203;DHT22;38173;52.850;6.970;2022-12-07T15:07:38;3.60;99.90
52203;DHT22;38173;52.850;6.970;2022-12-07T15:10:04;3.60;99.90
52203;DHT22;38173;52.850;6.970;2022-12-07T15:12:31;3.60;99.90
52203;DHT22;38173;52.850;6.970;2022-12-07T15:14:56;3.50;99.90
52203;DHT22;38173;52.850;6.970;2022-12-07T15:17:22;3.50;99.90
52203;DHT22;38173;52.850;6.970;2022-12-07T15:19:47;3.40;99.90
52203;DHT22;38173;52.850;6.970;2022-12-07T15:22:13;3.30;99.90
52203;DHT22;38173;52.850;6.970;2022-12-07T15:24:47;3.30;99.90
52203;DHT22;38173;52.850;6.970;2022-12-07T15:27:13;3.20;99.90
52203;DHT22;38173;52.850;6.970;2022-12-07T15:29:39;3.20;99.90
52203;DHT22;38173;52.850;6.970;2022-12-07T15:32:04;3.20;99.90
52203;DHT22;38173;52.850;6.970;2022-12-07T15:34:30;3.10;99.90
52203;DHT22;38173;52.850;6.970;2022-12-07T15:36:57;3.10;99.90
52203;DHT22;38173;52.850;6.970;2022-12-07T15:39:22;3.10;99.90
52203;DHT22;38173;52.850;6.970;2022-12-07T15:41:48;3.10;99.90
52203;DHT22;38173;52.850;6.970;2022-12-07T15:44:14;3.10;99.90
52203;DHT22;38173;52.850;6.970;2022-12-07T15:46:59;3.10;99.90
52203;DHT22;38173;52.850;6.970;2022-12-07T15:49:25;3.10;99.90
52203;DHT22;38173;52.850;6.970;2022-12-07T15:51:54;3.20;99.90
52203;DHT22;38173;52.850;6.970;2022-12-07T15:54:20;3.20;99.90
52203;DHT22;38173;52.850;6.970;2022-12-07T15:56:46;3.10;99.90
52203;DHT22;38173;52.850;6.970;2022-12-07T15:59:12;3.10;99.90
52203;DHT22;38173;52.850;6.970;2022-12-07T16:01:38;3.00;99.90
52203;DHT22;38173;52.850;6.970;2022-12-07T16:04:03;2.90;99.90
52203;DHT22;38173;52.850;6.970;2022-12-07T16:06:29;2.90;99.90
52203;DHT22;38173;52.850;6.970;2022-12-07T16:08:55;2.80;99.90
52203;DHT22;38173;52.850;6.970;2022-12-07T16:11:20;2.80;99.90
52203;DHT22;38173;52.850;6.970;2022-12-07T16:13:46;2.80;99.90
52203;DHT22;38173;52.850;6.970;2022-12-07T16:16:13;2.80;99.90
52203;DHT22;38173;52.850;6.970;2022-12-07T16:18:39;2.70;99.90
52203;DHT22;38173;52.850;6.970;2022-12-07T16:21:05;2.70;99.90
52203;DHT22;38173;52.850;6.970;2022-12-07T16:23:31;2.70;99.90
52203;DHT22;38173;52.850;6.970;2022-12-07T16:26:07;2.60;99.90
52203;DHT22;38173;52.850;6.970;2022-12-07T16:28:33;2.60;99.90
52203;DHT22;38173;52.850;6.970;2022-12-07T16:31:00;2.70;99.90
52203;DHT22;38173;52.850;6.970;2022-12-07T16:33:26;2.60;99.90
52203;DHT22;38173;52.850;6.970;2022-12-07T16:35:51;2.70;99.90
52203;DHT22;38173;52.850;6.970;2022-12-07T16:38:17;2.70;99.90
52203;DHT22;38173;52.850;6.970;2022-12-07T16:40:43;2.70;99.90
52203;DHT22;38173;52.850;6.970;2022-12-07T16:43:10;2.70;99.90
52203;DHT22;38173;52.850;6.970;2022-12-07T16:45:36;2.80;99.90
52203;DHT22;38173;52.850;6.970;2022-12-07T16:48:02;2.80;99.90
52203;DHT22;38173;52.850;6.970;2022-12-07T16:50:27;2.80;99.90
52203;DHT22;38173;52.850;6.970;2022-12-07T16:52:53;2.80;99.90
52203;DHT22;38173;52.850;6.970;2022-12-07T16:55:19;2.80;99.90
52203;DHT22;38173;52.850;6.970;2022-12-07T16:57:44;2.80;99.90
52203;DHT22;38173;52.850;6.970;2022-12-07T17:00:10;2.80;99.90
52203;DHT22;38173;52.850;6.970;2022-12-07T17:02:36;2.80;99.90
52203;DHT22;38173;52.850;6.970;2022-12-07T17:05:01;2.80;99.90
52203;DHT22;38173;52.850;6.970;2022-12-07T17:07:27;2.80;99.90
52203;DHT22;38173;52.850;6.970;2022-12-07T17:09:52;2.80;99.90
52203;DHT22;38173;52.850;6.970;2022-12-07T17:12:18;2.80;99.90
52203;DHT22;38173;52.850;6.970;2022-12-07T17:14:44;2.80;99.90
52203;DHT22;38173;52.850;6.970;2022-12-07T17:17:28;2.90;99.90
52203;DHT22;38173;52.850;6.970;2022-12-07T17:19:54;2.90;99.90
52203;DHT22;38173;52.850;6.970;2022-12-07T17:22:20;2.80;99.90
52203;DHT22;38173;52.850;6.970;2022-12-07T17:24:45;2.80;99.90
52203;DHT22;38173;52.850;6.970;2022-12-07T17:27:11;2.80;99.90
52203;DHT22;38173;52.850;6.970;2022-12-07T17:29:37;2.80;99.90
52203;DHT22;38173;52.850;6.970;2022-12-07T17:32:03;2.80;99.90
52203;DHT22;38173;52.850;6.970;2022-12-07T17:34:28;2.80;99.90
52203;DHT22;38173;52.850;6.970;2022-12-07T17:36:54;2.80;99.90
52203;DHT22;38173;52.850;6.970;2022-12-07T17:39:20;2.80;99.90
52203;DHT22;38173;52.850;6.970;2022-12-07T17:41:45;2.80;99.90
52203;DHT22;38173;52.850;6.970;2022-12-07T17:44:30;2.70;99.90
52203;DHT22;38173;52.850;6.970;2022-12-07T17:46:56;2.80;99.90
52203;DHT22;38173;52.850;6.970;2022-12-07T17:49:27;2.80;99.90
52203;DHT22;38173;52.850;6.970;2022-12-07T17:51:52;2.80;99.90
52203;DHT22;38173;52.850;6.970;2022-12-07T17:54:37;2.80;99.90
52203;DHT22;38173;52.850;6.970;2022-12-07T17:57:02;2.70;99.90
52203;DHT22;38173;52.850;6.970;2022-12-07T17:59:28;2.80;99.90
52203;DHT22;38173;52.850;6.970;2022-12-07T18:01:54;2.80;99.90
52203;DHT22;38173;52.850;6.970;2022-12-07T18:04:20;2.80;99.90
52203;DHT22;38173;52.850;6.970;2022-12-07T18:06:47;2.80;99.90